createdAt,value
2018-09-13T00:07:12.066Z,9.12
2018-09-13T00:07:12.340Z,9.43
2018-09-13T00:11:13.028Z,9.25
2018-09-13T00:21:15.558Z,9.06
2018-09-13T00:21:15.714Z,9.78
2018-09-13T00:27:16.543Z,9.97
2018-09-13T00:33:20.484Z,9.29
2018-09-13T00:37:21.440Z,9.36
2018-09-13T00:43:22.127Z,8.88
2018-09-13T00:43:22.170Z,8.88
2018-09-13T00:52:24.016Z,9.69
2018-09-13T00:54:25.084Z,9.34
2018-09-13T00:58:25.873Z,9.17
2018-09-13T01:04:27.460Z,9.21
2018-09-13T01:08:28.620Z,8.37
2018-09-13T01:14:29.539Z,9.24
2018-09-13T01:18:30.344Z,8.92
2018-09-13T01:20:31.711Z,9.23
2018-09-13T01:24:32.698Z,8.67
2018-09-13T01:30:34.260Z,9.77
2018-09-13T01:34:35.018Z,9.44
2018-09-13T01:40:35.864Z,8.75
2018-09-13T01:44:36.918Z,8.51
2018-09-13T01:50:39.832Z,8.74
2018-09-13T01:50:40.009Z,8.49
2018-09-13T01:56:41.156Z,9.59
2018-09-13T02:00:41.979Z,8.4
2018-09-13T02:06:42.815Z,9.33
2018-09-13T02:10:43.661Z,8.61
2018-09-13T02:12:44.385Z,8.38
2018-09-13T02:16:45.162Z,8.83
2018-09-13T02:22:45.961Z,8.89
2018-09-13T02:26:46.773Z,8.57
2018-09-13T02:32:47.641Z,9.88
2018-09-13T02:36:48.669Z,9.12
2018-09-13T02:38:49.442Z,9.58
2018-09-13T02:38:49.461Z,9.58
2018-09-13T02:42:50.238Z,8.72
2018-09-13T02:48:51.014Z,9.96
2018-09-13T02:57:52.930Z,9.16
2018-09-13T03:03:53.915Z,11.15
2018-09-13T03:09:54.652Z,12.85
2018-09-13T03:13:55.471Z,11.9
2018-09-13T03:19:56.357Z,12.53
2018-09-13T03:23:57.182Z,11.52
2018-09-13T03:29:58.066Z,11.53
2018-09-13T03:35:59.224Z,13.33
2018-09-13T03:40:00.067Z,12.36
2018-09-13T03:46:00.912Z,13
2018-09-13T03:50:01.893Z,12.9
2018-09-13T03:56:02.661Z,11.97
2018-09-13T04:02:03.472Z,11.14
2018-09-13T04:06:04.444Z,10.77
2018-09-13T04:06:04.465Z,10.77
2018-09-13T04:12:05.202Z,11.76
2018-09-13T04:16:06.105Z,12.29
2018-09-13T04:22:06.880Z,11.77
2018-09-13T04:28:07.712Z,12.01
2018-09-13T04:32:08.508Z,10.62
2018-09-13T04:32:08.511Z,10.62
2018-09-13T04:38:09.229Z,12.09
2018-09-13T04:42:10.032Z,11.47
2018-09-13T04:44:10.829Z,15.49
2018-09-13T04:48:11.589Z,14.97
2018-09-13T04:54:12.371Z,12.54
2018-09-13T04:58:13.198Z,11.92
2018-09-13T05:19:07.458Z,11.03
2018-09-13T05:19:07.609Z,12.3
2018-09-13T05:20:07.979Z,11.13
2018-09-13T05:24:08.744Z,11.56
2018-09-13T05:30:10.154Z,11.09
2018-09-13T05:34:10.938Z,10.39
2018-09-13T05:36:11.722Z,11.95
2018-09-13T05:40:12.656Z,11.49
2018-09-13T05:46:13.424Z,11.25
2018-09-13T05:50:14.344Z,11.67
2018-09-13T05:56:15.279Z,12.17
2018-09-13T06:02:16.521Z,11.81
2018-09-13T06:06:17.563Z,11.76
2018-09-13T06:12:18.472Z,12.95
2018-09-13T06:16:19.243Z,13.18
2018-09-13T06:22:20.010Z,14.91
2018-09-13T06:28:20.873Z,15.56
2018-09-13T06:32:21.972Z,15.3
2018-09-13T06:38:22.903Z,16.44
2018-09-13T06:42:23.652Z,16.17
2018-09-13T06:48:24.467Z,14.79
2018-09-13T06:54:25.292Z,14.41
2018-09-13T06:58:26.139Z,13.36
2018-09-13T07:04:27.288Z,15.51
2018-09-13T07:08:28.263Z,15.22
2018-09-13T07:14:33.662Z,16.89
2018-09-13T07:20:34.808Z,17.35
2018-09-13T07:24:35.726Z,16.92
2018-09-13T07:30:37.208Z,15.79
2018-09-13T07:34:38.033Z,15.14
2018-09-13T07:40:38.910Z,16.14
2018-09-13T07:46:39.705Z,16.52
2018-09-13T07:50:40.472Z,16.24
2018-09-13T07:56:41.652Z,16.4
2018-09-13T08:00:42.501Z,16.34
2018-09-13T08:06:43.271Z,15.49
2018-09-13T08:12:44.131Z,16.51
2018-09-13T08:16:45.152Z,15.19
2018-09-13T08:22:46.113Z,15.37
2018-09-13T08:26:47.150Z,14.91
2018-09-13T08:32:47.904Z,13.77
2018-09-13T08:38:48.880Z,16.18
2018-09-13T08:42:49.794Z,16.13
2018-09-13T08:48:51.051Z,15.1
2018-09-13T08:52:52.145Z,14.42
2018-09-13T08:58:52.781Z,11.96
2018-09-13T09:04:53.566Z,13.7
2018-09-13T09:08:54.515Z,13.86
2018-09-13T09:14:55.393Z,14.4
2018-09-13T09:18:56.284Z,14.58
2018-09-13T09:24:57.025Z,13.53
2018-09-13T09:30:57.840Z,15.85
2018-09-13T09:34:58.678Z,15.27
2018-09-13T09:40:59.485Z,18.42
2018-09-13T09:45:00.615Z,21.32
2018-09-13T09:51:01.348Z,23.25
2018-09-13T09:57:02.179Z,15.17
2018-09-13T10:01:03.102Z,15.51
2018-09-13T10:07:03.924Z,14.6
2018-09-13T10:11:04.908Z,14.93
2018-09-13T10:13:05.663Z,18.02
2018-09-13T10:17:06.476Z,17.56
2018-09-13T10:23:07.428Z,17.95
2018-09-13T10:27:08.531Z,16.58
2018-09-13T10:33:09.407Z,16.02
2018-09-13T10:37:10.260Z,16.08
2018-09-13T10:39:11.055Z,17.32
2018-09-13T10:43:11.824Z,16.75
2018-09-13T10:49:12.603Z,16.51
2018-09-13T10:53:13.382Z,15.33
2018-09-13T10:59:14.577Z,14.25
2018-09-13T11:03:15.270Z,14.13
2018-09-13T11:05:15.998Z,13.6
2018-09-13T11:09:16.744Z,14.05
2018-09-13T11:15:18.053Z,15.62
2018-09-13T11:19:18.786Z,13.31
2018-09-13T11:25:19.615Z,14.42
2018-09-13T11:29:20.415Z,13.32
2018-09-13T11:31:21.129Z,14.15
2018-09-13T11:35:22.309Z,14.67
2018-09-13T11:41:23.346Z,15.23
2018-09-13T11:45:24.675Z,14.93
2018-09-13T11:51:25.691Z,15.22
2018-09-13T11:55:26.570Z,15.19
2018-09-13T11:57:27.613Z,15.91
2018-09-13T12:01:28.487Z,13.94
2018-09-13T12:07:29.551Z,15.51
2018-09-13T12:11:30.279Z,15.65
2018-09-13T12:17:31.152Z,14.8
2018-09-13T12:21:31.880Z,14.66
2018-09-13T12:23:32.849Z,16.04
2018-09-13T12:27:33.727Z,16.16
2018-09-13T12:33:34.940Z,13.87
2018-09-13T12:37:36.488Z,12.79
2018-09-13T12:43:38.049Z,12.71
2018-09-13T12:47:39.022Z,11.85
2018-09-13T12:49:39.778Z,11.43
2018-09-13T12:53:40.680Z,12.29
2018-09-13T12:59:41.433Z,13.32
2018-09-13T13:03:47.678Z,12.26
2018-09-13T13:09:48.872Z,11.51
2018-09-13T13:13:49.566Z,12.19
2018-09-13T13:15:50.469Z,12.06
2018-09-13T13:19:51.345Z,11.77
2018-09-13T13:25:52.325Z,11.81
2018-09-13T13:29:53.066Z,10.79
2018-09-13T13:35:54.043Z,12.03
2018-09-13T13:39:56.211Z,11.9
2018-09-13T13:41:57.045Z,12.04
2018-09-13T13:45:57.924Z,11.2
2018-09-13T13:51:59.026Z,12.69
2018-09-13T13:55:59.808Z,11.31
2018-09-13T14:02:00.646Z,11.89
2018-09-13T14:06:01.434Z,12.68
2018-09-13T14:08:02.244Z,11.59
2018-09-13T14:12:03.137Z,11.7
2018-09-13T14:18:06.034Z,13.85
2018-09-13T14:22:06.901Z,12.79
2018-09-13T14:28:07.692Z,11.41
2018-09-13T14:32:08.541Z,11.87
2018-09-13T14:34:09.386Z,10.55
2018-09-13T14:38:10.198Z,11.33
2018-09-13T14:44:11.498Z,11.76
2018-09-13T14:48:12.315Z,11.52
2018-09-13T14:54:13.363Z,10.93
2018-09-13T14:58:14.181Z,11.04
2018-09-13T15:00:15.315Z,12.03
2018-09-13T15:04:16.188Z,11.8
2018-09-13T15:10:17.110Z,12.38
2018-09-13T15:14:17.934Z,12.07
2018-09-13T15:20:18.975Z,11.7
2018-09-13T15:24:19.766Z,11.25
2018-09-13T15:26:20.954Z,12.12
2018-09-13T15:30:21.921Z,11.24
2018-09-13T15:36:23.006Z,11.62
2018-09-13T15:40:23.908Z,10.99
2018-09-13T15:46:24.725Z,11.49
2018-09-13T15:50:25.997Z,12.66
2018-09-13T15:52:26.708Z,11.93
2018-09-13T15:52:26.720Z,11.93
2018-09-13T15:56:27.624Z,12.53
2018-09-13T16:02:28.353Z,13.14
2018-09-13T16:06:29.153Z,11.14
2018-09-13T16:12:30.355Z,12.24
2018-09-13T16:16:31.211Z,12.34
2018-09-13T16:18:31.892Z,13.8
2018-09-13T16:22:32.818Z,12.64
2018-09-13T16:28:33.899Z,19.21
2018-09-13T16:32:34.744Z,19.52
2018-09-13T16:38:35.468Z,14.06
2018-09-13T16:42:36.222Z,13.04
2018-09-13T16:44:36.924Z,13.99
2018-09-13T16:48:37.658Z,14.09
2018-09-13T16:54:38.428Z,12.9
2018-09-13T16:58:39.190Z,11.98
2018-09-13T17:04:39.983Z,13.3
2018-09-13T17:08:40.746Z,12.9
2018-09-13T17:10:41.512Z,12.69
2018-09-13T17:14:42.298Z,12.74
2018-09-13T17:20:43.088Z,13.63
2018-09-13T17:24:43.987Z,12.71
2018-09-13T17:30:45.079Z,14.09
2018-09-13T17:36:45.863Z,21.8
2018-09-13T17:40:46.646Z,22.54
2018-09-13T17:46:47.492Z,24.66
2018-09-13T17:50:48.583Z,22.9
2018-09-13T17:56:49.308Z,17.56
2018-09-13T18:02:50.214Z,17.48
2018-09-13T18:06:51.362Z,17.65
2018-09-13T18:12:52.117Z,20.84
2018-09-13T18:16:52.923Z,23.15
2018-09-13T18:22:53.854Z,23.31
2018-09-13T18:28:54.752Z,25.39
2018-09-13T18:32:55.613Z,25.9
2018-09-13T18:38:56.481Z,19.59
2018-09-13T18:42:58.109Z,20
2018-09-13T18:48:58.890Z,18.06
2018-09-13T18:54:59.630Z,16.71
2018-09-13T18:59:00.484Z,17.35
2018-09-13T19:05:01.283Z,20.91
2018-09-13T19:09:02.051Z,18.31
2018-09-13T19:15:03.003Z,18.43
2018-09-13T19:21:03.676Z,21.94
2018-09-13T19:25:04.621Z,20.04
2018-09-13T19:31:05.570Z,18.12
2018-09-13T19:35:06.426Z,15.82
2018-09-13T19:37:07.591Z,16.55
2018-09-13T19:41:08.443Z,16.12
2018-09-13T19:47:09.264Z,14.68
2018-09-13T19:51:10.043Z,14.85
2018-09-13T19:57:10.916Z,17.93
2018-09-13T20:01:11.804Z,17.23
2018-09-13T20:03:12.549Z,19.28
2018-09-13T20:07:13.315Z,18.87
2018-09-13T20:13:14.132Z,19.95
2018-09-13T20:17:14.928Z,19.6
2018-09-13T20:23:15.773Z,21.41
2018-09-13T20:27:16.387Z,20.49
2018-09-13T20:29:17.286Z,23.15
2018-09-13T20:33:18.029Z,22.66
2018-09-13T20:39:18.901Z,25.38
2018-09-13T20:43:19.810Z,23.93
2018-09-13T20:49:20.620Z,23.82
2018-09-13T20:53:21.476Z,23.61
2018-09-13T20:55:22.112Z,25.18
2018-09-13T20:59:23.142Z,24.41
2018-09-13T21:05:25.305Z,24.7
2018-09-13T21:09:26.293Z,24.92
2018-09-13T21:25:36.426Z,25.02
2018-09-13T21:25:36.579Z,23.81
2018-09-13T21:25:36.752Z,23.7
2018-09-13T21:31:37.514Z,24.53
2018-09-13T21:35:38.210Z,24.77
2018-09-13T21:41:38.963Z,24.47
2018-09-13T21:45:39.826Z,22.39
2018-09-13T21:51:40.513Z,23.7
2018-09-13T21:57:41.438Z,24.05
2018-09-13T22:01:42.192Z,21.47
2018-09-13T22:07:42.898Z,24.28
2018-09-13T22:11:43.704Z,23.49
2018-09-13T22:13:44.364Z,23.5
2018-09-13T22:17:45.182Z,23.21
2018-09-13T22:23:45.926Z,23.49
2018-09-13T22:27:46.665Z,23.24
2018-09-13T22:33:47.362Z,17.4
2018-09-13T22:37:48.183Z,17.02
2018-09-13T22:39:48.972Z,16.46
2018-09-13T22:43:49.672Z,16.25
2018-09-13T22:49:50.564Z,18.59
2018-09-13T22:53:51.322Z,18.15
2018-09-13T22:59:52.142Z,19.57
2018-09-13T23:03:52.869Z,19.02
2018-09-13T23:05:53.524Z,19.39
2018-09-13T23:09:54.343Z,18.01
2018-09-13T23:15:55.238Z,19.42
2018-09-13T23:19:55.936Z,18.79
2018-09-13T23:25:56.717Z,16.7
2018-09-13T23:29:57.404Z,16.37
2018-09-13T23:31:58.148Z,16.85
2018-09-13T23:36:04.372Z,16.86
2018-09-13T23:42:05.156Z,19.8
2018-09-13T23:46:05.952Z,18.8
2018-09-13T23:52:06.730Z,17.91
2018-09-13T23:56:07.502Z,17.49
2018-09-13T23:58:08.229Z,18.07
